sensor_id;sensor_type;location;lat;lon;timestamp;pressure;altitude;pressure_sealevel;temperature
4421;BMP180;11824;51.178;13.546;2023-02-28T00:01:08;101590.00;;;0.60
4421;BMP180;11824;51.178;13.546;2023-02-28T00:03:35;101590.00;;;0.60
4421;BMP180;11824;51.178;13.546;2023-02-28T00:06:03;101592.00;;;0.60
4421;BMP180;11824;51.178;13.546;2023-02-28T00:08:31;101587.00;;;0.60
4421;BMP180;11824;51.178;13.546;2023-02-28T00:11:01;101592.00;;;0.70
4421;BMP180;11824;51.178;13.546;2023-02-28T00:13:29;101594.00;;;0.70
4421;BMP180;11824;51.178;13.546;2023-02-28T00:16:01;101590.00;;;0.80
4421;BMP180;11824;51.178;13.546;2023-02-28T00:18:29;101587.00;;;0.80
4421;BMP180;11824;51.178;13.546;2023-02-28T00:20:58;101589.00;;;0.80
4421;BMP180;11824;51.178;13.546;2023-02-28T00:23:25;101581.00;;;0.80
4421;BMP180;11824;51.178;13.546;2023-02-28T00:25:54;101586.00;;;0.80
4421;BMP180;11824;51.178;13.546;2023-02-28T00:28:22;101573.00;;;0.80
4421;BMP180;11824;51.178;13.546;2023-02-28T00:30:49;101572.00;;;0.80
4421;BMP180;11824;51.178;13.546;2023-02-28T00:33:17;101567.00;;;0.80
4421;BMP180;11824;51.178;13.546;2023-02-28T00:35:44;101571.00;;;0.80
4421;BMP180;11824;51.178;13.546;2023-02-28T00:38:13;101565.00;;;0.90
4421;BMP180;11824;51.178;13.546;2023-02-28T00:40:40;101563.00;;;0.80
4421;BMP180;11824;51.178;13.546;2023-02-28T00:43:08;101567.00;;;0.80
4421;BMP180;11824;51.178;13.546;2023-02-28T00:45:35;101572.00;;;0.90
4421;BMP180;11824;51.178;13.546;2023-02-28T00:48:03;101582.00;;;0.80
4421;BMP180;11824;51.178;13.546;2023-02-28T00:50:30;101576.00;;;0.80
4421;BMP180;11824;51.178;13.546;2023-02-28T00:52:58;101571.00;;;0.80
4421;BMP180;11824;51.178;13.546;2023-02-28T00:55:25;101572.00;;;0.80
4421;BMP180;11824;51.178;13.546;2023-02-28T00:57:52;101574.00;;;0.80
4421;BMP180;11824;51.178;13.546;2023-02-28T01:00:21;101571.00;;;0.80
4421;BMP180;11824;51.178;13.546;2023-02-28T01:02:48;101569.00;;;0.80
4421;BMP180;11824;51.178;13.546;2023-02-28T01:05:15;101572.00;;;0.80
4421;BMP180;11824;51.178;13.546;2023-02-28T01:07:43;101571.00;;;0.70
4421;BMP180;11824;51.178;13.546;2023-02-28T01:10:13;101577.00;;;0.70
4421;BMP180;11824;51.178;13.546;2023-02-28T01:12:40;101569.00;;;0.50
4421;BMP180;11824;51.178;13.546;2023-02-28T01:15:09;101566.00;;;0.40
4421;BMP180;11824;51.178;13.546;2023-02-28T01:17:37;101566.00;;;0.30
4421;BMP180;11824;51.178;13.546;2023-02-28T01:20:05;101565.00;;;0.10
4421;BMP180;11824;51.178;13.546;2023-02-28T01:22:34;101565.00;;;0.00
4421;BMP180;11824;51.178;13.546;2023-02-28T01:25:01;101568.00;;;-0.10
4421;BMP180;11824;51.178;13.546;2023-02-28T01:27:28;101553.00;;;-0.20
4421;BMP180;11824;51.178;13.546;2023-02-28T01:29:56;101557.00;;;-0.30
4421;BMP180;11824;51.178;13.546;2023-02-28T01:32:23;101569.00;;;-0.40
4421;BMP180;11824;51.178;13.546;2023-02-28T01:34:51;101554.00;;;-0.50
4421;BMP180;11824;51.178;13.546;2023-02-28T01:37:19;101568.00;;;-0.50
4421;BMP180;11824;51.178;13.546;2023-02-28T01:39:46;101559.00;;;-0.60
4421;BMP180;11824;51.178;13.546;2023-02-28T01:42:13;101569.00;;;-0.70
4421;BMP180;11824;51.178;13.546;2023-02-28T01:45:03;101554.00;;;-0.80
4421;BMP180;11824;51.178;13.546;2023-02-28T01:47:33;101557.00;;;-0.90
4421;BMP180;11824;51.178;13.546;2023-02-28T01:50:06;101554.00;;;-1.00
4421;BMP180;11824;51.178;13.546;2023-02-28T01:52:34;101555.00;;;-1.00
4421;BMP180;11824;51.178;13.546;2023-02-28T01:55:04;101557.00;;;-1.10
4421;BMP180;11824;51.178;13.546;2023-02-28T01:57:36;101557.00;;;-1.20
4421;BMP180;11824;51.178;13.546;2023-02-28T02:00:08;101567.00;;;-1.30
4421;BMP180;11824;51.178;13.546;2023-02-28T02:02:36;101551.00;;;-1.30
4421;BMP180;11824;51.178;13.546;2023-02-28T02:05:06;101556.00;;;-1.50
4421;BMP180;11824;51.178;13.546;2023-02-28T02:07:37;101548.00;;;-1.50
4421;BMP180;11824;51.178;13.546;2023-02-28T02:10:10;101546.00;;;-1.60
4421;BMP180;11824;51.178;13.546;2023-02-28T02:13:05;101548.00;;;-1.70
4421;BMP180;11824;51.178;13.546;2023-02-28T02:15:39;101540.00;;;-1.70
4421;BMP180;11824;51.178;13.546;2023-02-28T02:18:11;101536.00;;;-1.80
4421;BMP180;11824;51.178;13.546;2023-02-28T02:21:07;101541.00;;;-1.80
4421;BMP180;11824;51.178;13.546;2023-02-28T02:27:04;101540.00;;;-1.90
4421;BMP180;11824;51.178;13.546;2023-02-28T02:33:25;101542.00;;;-2.00
4421;BMP180;11824;51.178;13.546;2023-02-28T02:35:57;101539.00;;;-2.10
4421;BMP180;11824;51.178;13.546;2023-02-28T02:38:33;101534.00;;;-2.20
4421;BMP180;11824;51.178;13.546;2023-02-28T02:41:08;101535.00;;;-2.20
4421;BMP180;11824;51.178;13.546;2023-02-28T02:43:39;101543.00;;;-2.20
4421;BMP180;11824;51.178;13.546;2023-02-28T02:46:12;101532.00;;;-2.30
4421;BMP180;11824;51.178;13.546;2023-02-28T02:48:43;101527.00;;;-2.30
4421;BMP180;11824;51.178;13.546;2023-02-28T02:51:14;101531.00;;;-2.30
4421;BMP180;11824;51.178;13.546;2023-02-28T02:53:46;101533.00;;;-2.40
4421;BMP180;11824;51.178;13.546;2023-02-28T02:56:17;101532.00;;;-2.40
4421;BMP180;11824;51.178;13.546;2023-02-28T02:58:48;101528.00;;;-2.50
4421;BMP180;11824;51.178;13.546;2023-02-28T03:01:19;101538.00;;;-2.50
4421;BMP180;11824;51.178;13.546;2023-02-28T03:03:56;101538.00;;;-2.50
4421;BMP180;11824;51.178;13.546;2023-02-28T03:06:25;101540.00;;;-2.60
4421;BMP180;11824;51.178;13.546;2023-02-28T03:08:53;101541.00;;;-2.60
4421;BMP180;11824;51.178;13.546;2023-02-28T03:11:21;101555.00;;;-2.70
4421;BMP180;11824;51.178;13.546;2023-02-28T03:14:08;101548.00;;;-2.70
4421;BMP180;11824;51.178;13.546;2023-02-28T03:17:00;101547.00;;;-2.80
4421;BMP180;11824;51.178;13.546;2023-02-28T03:19:47;101546.00;;;-2.80
4421;BMP180;11824;51.178;13.546;2023-02-28T03:25:29;101546.00;;;-2.90
4421;BMP180;11824;51.178;13.546;2023-02-28T03:28:05;101547.00;;;-2.90
4421;BMP180;11824;51.178;13.546;2023-02-28T03:30:41;101544.00;;;-2.90
4421;BMP180;11824;51.178;13.546;2023-02-28T03:33:12;101545.00;;;-2.90
4421;BMP180;11824;51.178;13.546;2023-02-28T03:35:43;101541.00;;;-2.90
4421;BMP180;11824;51.178;13.546;2023-02-28T03:38:16;101547.00;;;-2.90
4421;BMP180;11824;51.178;13.546;2023-02-28T03:40:48;101540.00;;;-2.90
4421;BMP180;11824;51.178;13.546;2023-02-28T03:43:20;101542.00;;;-3.00
4421;BMP180;11824;51.178;13.546;2023-02-28T03:45:50;101545.00;;;-3.00
4421;BMP180;11824;51.178;13.546;2023-02-28T03:48:21;101546.00;;;-3.00
4421;BMP180;11824;51.178;13.546;2023-02-28T03:50:52;101542.00;;;-3.00
4421;BMP180;11824;51.178;13.546;2023-02-28T03:53:25;101550.00;;;-3.10
4421;BMP180;11824;51.178;13.546;2023-02-28T03:55:56;101549.00;;;-3.10
4421;BMP180;11824;51.178;13.546;2023-02-28T03:58:29;101544.00;;;-3.20
4421;BMP180;11824;51.178;13.546;2023-02-28T04:01:01;101547.00;;;-3.20
4421;BMP180;11824;51.178;13.546;2023-02-28T04:03:35;101552.00;;;-3.20
4421;BMP180;11824;51.178;13.546;2023-02-28T04:06:03;101552.00;;;-3.20
4421;BMP180;11824;51.178;13.546;2023-02-28T04:08:31;101557.00;;;-3.30
4421;BMP180;11824;51.178;13.546;2023-02-28T04:11:01;101556.00;;;-3.30
4421;BMP180;11824;51.178;13.546;2023-02-28T04:13:30;101555.00;;;-3.30
4421;BMP180;11824;51.178;13.546;2023-02-28T04:15:58;101563.00;;;-3.30
4421;BMP180;11824;51.178;13.546;2023-02-28T04:18:25;101566.00;;;-3.30
4421;BMP180;11824;51.178;13.546;2023-02-28T04:20:52;101564.00;;;-3.40
4421;BMP180;11824;51.178;13.546;2023-02-28T04:23:20;101563.00;;;-3.40
4421;BMP180;11824;51.178;13.546;2023-02-28T04:25:48;101569.00;;;-3.40
4421;BMP180;11824;51.178;13.546;2023-02-28T04:28:17;101568.00;;;-3.50
4421;BMP180;11824;51.178;13.546;2023-02-28T04:30:44;101565.00;;;-3.50
4421;BMP180;11824;51.178;13.546;2023-02-28T04:33:12;101574.00;;;-3.50
4421;BMP180;11824;51.178;13.546;2023-02-28T04:35:39;101571.00;;;-3.40
4421;BMP180;11824;51.178;13.546;2023-02-28T04:38:06;101563.00;;;-3.50
4421;BMP180;11824;51.178;13.546;2023-02-28T04:40:34;101568.00;;;-3.50
4421;BMP180;11824;51.178;13.546;2023-02-28T04:43:03;101575.00;;;-3.50
4421;BMP180;11824;51.178;13.546;2023-02-28T04:45:30;101563.00;;;-3.50
4421;BMP180;11824;51.178;13.546;2023-02-28T04:47:58;101573.00;;;-3.50
4421;BMP180;11824;51.178;13.546;2023-02-28T04:50:26;101574.00;;;-3.50
4421;BMP180;11824;51.178;13.546;2023-02-28T04:52:53;101579.00;;;-3.50
4421;BMP180;11824;51.178;13.546;2023-02-28T04:55:21;101576.00;;;-3.60
4421;BMP180;11824;51.178;13.546;2023-02-28T04:57:48;101567.00;;;-3.60
4421;BMP180;11824;51.178;13.546;2023-02-28T05:00:17;101577.00;;;-3.60
4421;BMP180;11824;51.178;13.546;2023-02-28T05:02:44;101568.00;;;-3.60
4421;BMP180;11824;51.178;13.546;2023-02-28T05:05:11;101572.00;;;-3.60
4421;BMP180;11824;51.178;13.546;2023-02-28T05:07:44;101567.00;;;-3.70
4421;BMP180;11824;51.178;13.546;2023-02-28T05:10:12;101572.00;;;-3.70
4421;BMP180;11824;51.178;13.546;2023-02-28T05:12:39;101570.00;;;-3.70
4421;BMP180;11824;51.178;13.546;2023-02-28T05:15:08;101579.00;;;-3.80
4421;BMP180;11824;51.178;13.546;2023-02-28T05:17:36;101584.00;;;-3.80
4421;BMP180;11824;51.178;13.546;2023-02-28T05:20:04;101579.00;;;-3.80
4421;BMP180;11824;51.178;13.546;2023-02-28T05:22:42;101576.00;;;-3.90
4421;BMP180;11824;51.178;13.546;2023-02-28T05:25:12;101586.00;;;-3.90
4421;BMP180;11824;51.178;13.546;2023-02-28T05:27:40;101586.00;;;-3.90
4421;BMP180;11824;51.178;13.546;2023-02-28T05:30:08;101578.00;;;-3.90
4421;BMP180;11824;51.178;13.546;2023-02-28T05:32:37;101582.00;;;-3.90
4421;BMP180;11824;51.178;13.546;2023-02-28T05:35:06;101579.00;;;-4.00
4421;BMP180;11824;51.178;13.546;2023-02-28T05:37:33;101574.00;;;-4.00
4421;BMP180;11824;51.178;13.546;2023-02-28T05:40:00;101584.00;;;-4.00
4421;BMP180;11824;51.178;13.546;2023-02-28T05:42:27;101581.00;;;-4.00
4421;BMP180;11824;51.178;13.546;2023-02-28T05:44:55;101593.00;;;-4.00
4421;BMP180;11824;51.178;13.546;2023-02-28T05:47:22;101586.00;;;-4.10
4421;BMP180;11824;51.178;13.546;2023-02-28T05:49:50;101600.00;;;-4.10
4421;BMP180;11824;51.178;13.546;2023-02-28T05:52:17;101594.00;;;-4.10
4421;BMP180;11824;51.178;13.546;2023-02-28T05:54:45;101585.00;;;-4.10
4421;BMP180;11824;51.178;13.546;2023-02-28T05:57:13;101591.00;;;-4.10
4421;BMP180;11824;51.178;13.546;2023-02-28T05:59:50;101597.00;;;-4.20
4421;BMP180;11824;51.178;13.546;2023-02-28T06:02:18;101596.00;;;-4.20
4421;BMP180;11824;51.178;13.546;2023-02-28T06:04:45;101600.00;;;-4.20
4421;BMP180;11824;51.178;13.546;2023-02-28T06:07:13;101603.00;;;-4.10
4421;BMP180;11824;51.178;13.546;2023-02-28T06:09:41;101603.00;;;-4.10
4421;BMP180;11824;51.178;13.546;2023-02-28T06:12:09;101607.00;;;-4.10
4421;BMP180;11824;51.178;13.546;2023-02-28T06:14:37;101623.00;;;-4.10
4421;BMP180;11824;51.178;13.546;2023-02-28T06:17:04;101614.00;;;-4.10
4421;BMP180;11824;51.178;13.546;2023-02-28T06:19:31;101625.00;;;-4.00
4421;BMP180;11824;51.178;13.546;2023-02-28T06:22:00;101620.00;;;-4.00
4421;BMP180;11824;51.178;13.546;2023-02-28T06:24:28;101630.00;;;-4.00
4421;BMP180;11824;51.178;13.546;2023-02-28T06:26:56;101620.00;;;-4.00
4421;BMP180;11824;51.178;13.546;2023-02-28T06:29:25;101627.00;;;-3.90
4421;BMP180;11824;51.178;13.546;2023-02-28T06:31:52;101631.00;;;-3.80
4421;BMP180;11824;51.178;13.546;2023-02-28T06:34:20;101623.00;;;-3.80
4421;BMP180;11824;51.178;13.546;2023-02-28T06:36:50;101640.00;;;-3.70
4421;BMP180;11824;51.178;13.546;2023-02-28T06:39:18;101640.00;;;-3.60
4421;BMP180;11824;51.178;13.546;2023-02-28T06:41:46;101641.00;;;-3.50
4421;BMP180;11824;51.178;13.546;2023-02-28T06:44:23;101654.00;;;-3.40
4421;BMP180;11824;51.178;13.546;2023-02-28T06:46:50;101640.00;;;-3.40
4421;BMP180;11824;51.178;13.546;2023-02-28T06:49:18;101654.00;;;-3.30
4421;BMP180;11824;51.178;13.546;2023-02-28T06:51:45;101651.00;;;-3.20
4421;BMP180;11824;51.178;13.546;2023-02-28T06:54:13;101657.00;;;-3.10
4421;BMP180;11824;51.178;13.546;2023-02-28T06:56:40;101655.00;;;-3.00
4421;BMP180;11824;51.178;13.546;2023-02-28T06:59:08;101656.00;;;-2.90
4421;BMP180;11824;51.178;13.546;2023-02-28T07:01:36;101667.00;;;-2.80
4421;BMP180;11824;51.178;13.546;2023-02-28T07:04:03;101664.00;;;-2.70
4421;BMP180;11824;51.178;13.546;2023-02-28T07:06:32;101662.00;;;-2.60
4421;BMP180;11824;51.178;13.546;2023-02-28T07:08:59;101670.00;;;-2.50
4421;BMP180;11824;51.178;13.546;2023-02-28T07:11:27;101669.00;;;-2.40
4421;BMP180;11824;51.178;13.546;2023-02-28T07:13:56;101666.00;;;-2.30
4421;BMP180;11824;51.178;13.546;2023-02-28T07:16:25;101675.00;;;-2.20
4421;BMP180;11824;51.178;13.546;2023-02-28T07:18:53;101671.00;;;-2.00
4421;BMP180;11824;51.178;13.546;2023-02-28T07:21:20;101664.00;;;-1.90
4421;BMP180;11824;51.178;13.546;2023-02-28T07:23:48;101670.00;;;-1.70
4421;BMP180;11824;51.178;13.546;2023-02-28T07:26:16;101669.00;;;-1.60
4421;BMP180;11824;51.178;13.546;2023-02-28T07:28:46;101678.00;;;-1.40
4421;BMP180;11824;51.178;13.546;2023-02-28T07:31:14;101677.00;;;-1.20
4421;BMP180;11824;51.178;13.546;2023-02-28T07:33:42;101682.00;;;-1.00
4421;BMP180;11824;51.178;13.546;2023-02-28T07:36:11;101680.00;;;-0.90
4421;BMP180;11824;51.178;13.546;2023-02-28T07:38:41;101682.00;;;-0.70
4421;BMP180;11824;51.178;13.546;2023-02-28T07:41:08;101684.00;;;-0.60
4421;BMP180;11824;51.178;13.546;2023-02-28T07:43:36;101691.00;;;-0.40
4421;BMP180;11824;51.178;13.546;2023-02-28T07:46:05;101690.00;;;-0.30
4421;BMP180;11824;51.178;13.546;2023-02-28T07:48:32;101692.00;;;-0.10
4421;BMP180;11824;51.178;13.546;2023-02-28T07:51:01;101694.00;;;0.00
4421;BMP180;11824;51.178;13.546;2023-02-28T07:53:29;101694.00;;;0.10
4421;BMP180;11824;51.178;13.546;2023-02-28T07:55:57;101695.00;;;0.20
4421;BMP180;11824;51.178;13.546;2023-02-28T07:58:25;101697.00;;;0.40
4421;BMP180;11824;51.178;13.546;2023-02-28T08:00:53;101700.00;;;0.50
4421;BMP180;11824;51.178;13.546;2023-02-28T08:03:21;101693.00;;;0.60
4421;BMP180;11824;51.178;13.546;2023-02-28T08:05:49;101700.00;;;0.70
4421;BMP180;11824;51.178;13.546;2023-02-28T08:08:17;101692.00;;;0.80
4421;BMP180;11824;51.178;13.546;2023-02-28T08:10:44;101700.00;;;0.90
4421;BMP180;11824;51.178;13.546;2023-02-28T08:13:12;101696.00;;;1.00
4421;BMP180;11824;51.178;13.546;2023-02-28T08:15:41;101686.00;;;1.00
4421;BMP180;11824;51.178;13.546;2023-02-28T08:18:09;101699.00;;;1.10
4421;BMP180;11824;51.178;13.546;2023-02-28T08:20:36;101699.00;;;1.20
4421;BMP180;11824;51.178;13.546;2023-02-28T08:23:04;101701.00;;;1.30
4421;BMP180;11824;51.178;13.546;2023-02-28T08:25:31;101688.00;;;1.40
4421;BMP180;11824;51.178;13.546;2023-02-28T08:27:59;101696.00;;;1.50
4421;BMP180;11824;51.178;13.546;2023-02-28T08:30:26;101699.00;;;1.60
4421;BMP180;11824;51.178;13.546;2023-02-28T08:32:53;101690.00;;;1.70
4421;BMP180;11824;51.178;13.546;2023-02-28T08:35:21;101701.00;;;1.80
4421;BMP180;11824;51.178;13.546;2023-02-28T08:37:50;101703.00;;;1.90
4421;BMP180;11824;51.178;13.546;2023-02-28T08:40:17;101702.00;;;2.00
4421;BMP180;11824;51.178;13.546;2023-02-28T08:42:46;101698.00;;;2.10
4421;BMP180;11824;51.178;13.546;2023-02-28T08:45:14;101712.00;;;2.20
4421;BMP180;11824;51.178;13.546;2023-02-28T08:47:42;101710.00;;;2.30
4421;BMP180;11824;51.178;13.546;2023-02-28T08:50:10;101714.00;;;2.30
4421;BMP180;11824;51.178;13.546;2023-02-28T08:52:37;101716.00;;;2.40
4421;BMP180;11824;51.178;13.546;2023-02-28T08:55:05;101723.00;;;2.50
4421;BMP180;11824;51.178;13.546;2023-02-28T08:57:33;101725.00;;;2.60
4421;BMP180;11824;51.178;13.546;2023-02-28T09:00:01;101707.00;;;2.60
4421;BMP180;11824;51.178;13.546;2023-02-28T09:02:30;101721.00;;;2.60
4421;BMP180;11824;51.178;13.546;2023-02-28T09:04:58;101712.00;;;2.70
4421;BMP180;11824;51.178;13.546;2023-02-28T09:07:25;101719.00;;;2.60
4421;BMP180;11824;51.178;13.546;2023-02-28T09:09:53;101704.00;;;2.60
4421;BMP180;11824;51.178;13.546;2023-02-28T09:12:25;101695.00;;;2.60
4421;BMP180;11824;51.178;13.546;2023-02-28T09:14:53;101705.00;;;2.40
4421;BMP180;11824;51.178;13.546;2023-02-28T09:17:21;101694.00;;;2.30
4421;BMP180;11824;51.178;13.546;2023-02-28T09:19:48;101701.00;;;2.20
4421;BMP180;11824;51.178;13.546;2023-02-28T09:22:16;101698.00;;;2.10
4421;BMP180;11824;51.178;13.546;2023-02-28T09:24:43;101704.00;;;2.10
4421;BMP180;11824;51.178;13.546;2023-02-28T09:27:11;101696.00;;;2.00
4421;BMP180;11824;51.178;13.546;2023-02-28T09:29:38;101705.00;;;2.00
4421;BMP180;11824;51.178;13.546;2023-02-28T09:32:06;101708.00;;;2.00
4421;BMP180;11824;51.178;13.546;2023-02-28T09:34:34;101702.00;;;2.00
4421;BMP180;11824;51.178;13.546;2023-02-28T09:37:03;101696.00;;;2.00
4421;BMP180;11824;51.178;13.546;2023-02-28T09:39:30;101697.00;;;2.00
4421;BMP180;11824;51.178;13.546;2023-02-28T09:41:58;101689.00;;;2.10
4421;BMP180;11824;51.178;13.546;2023-02-28T09:44:29;101689.00;;;2.10
4421;BMP180;11824;51.178;13.546;2023-02-28T09:47:00;101695.00;;;2.20
4421;BMP180;11824;51.178;13.546;2023-02-28T09:49:36;101689.00;;;2.30
4421;BMP180;11824;51.178;13.546;2023-02-28T09:52:09;101681.00;;;2.50
4421;BMP180;11824;51.178;13.546;2023-02-28T09:54:37;101686.00;;;2.60
4421;BMP180;11824;51.178;13.546;2023-02-28T09:57:13;101694.00;;;2.80
4421;BMP180;11824;51.178;13.546;2023-02-28T10:00:06;101699.00;;;3.00
4421;BMP180;11824;51.178;13.546;2023-02-28T10:03:15;101689.00;;;3.10
4421;BMP180;11824;51.178;13.546;2023-02-28T10:05:52;101707.00;;;3.20
4421;BMP180;11824;51.178;13.546;2023-02-28T10:08:24;101691.00;;;3.30
4421;BMP180;11824;51.178;13.546;2023-02-28T10:10:55;101703.00;;;3.50
4421;BMP180;11824;51.178;13.546;2023-02-28T10:13:26;101699.00;;;3.60
4421;BMP180;11824;51.178;13.546;2023-02-28T10:15:58;101698.00;;;3.80
4421;BMP180;11824;51.178;13.546;2023-02-28T10:18:29;101699.00;;;3.90
4421;BMP180;11824;51.178;13.546;2023-02-28T10:20:59;101691.00;;;4.10
4421;BMP180;11824;51.178;13.546;2023-02-28T10:23:31;101703.00;;;4.20
4421;BMP180;11824;51.178;13.546;2023-02-28T10:26:01;101702.00;;;4.20
4421;BMP180;11824;51.178;13.546;2023-02-28T10:28:30;101718.00;;;4.20
4421;BMP180;11824;51.178;13.546;2023-02-28T10:30:59;101709.00;;;4.20
4421;BMP180;11824;51.178;13.546;2023-02-28T10:33:29;101705.00;;;4.20
4421;BMP180;11824;51.178;13.546;2023-02-28T10:35:59;101705.00;;;4.30
4421;BMP180;11824;51.178;13.546;2023-02-28T10:38:31;101709.00;;;4.20
4421;BMP180;11824;51.178;13.546;2023-02-28T10:41:05;101704.00;;;4.20
4421;BMP180;11824;51.178;13.546;2023-02-28T10:43:33;101704.00;;;4.20
4421;BMP180;11824;51.178;13.546;2023-02-28T10:46:03;101698.00;;;4.20
4421;BMP180;11824;51.178;13.546;2023-02-28T10:48:34;101698.00;;;4.30
4421;BMP180;11824;51.178;13.546;2023-02-28T10:51:05;101694.00;;;4.30
4421;BMP180;11824;51.178;13.546;2023-02-28T10:53:36;101696.00;;;4.30
4421;BMP180;11824;51.178;13.546;2023-02-28T10:56:25;101692.00;;;4.20
4421;BMP180;11824;51.178;13.546;2023-02-28T10:58:54;101687.00;;;4.20
4421;BMP180;11824;51.178;13.546;2023-02-28T11:01:24;101690.00;;;4.10
4421;BMP180;11824;51.178;13.546;2023-02-28T11:03:52;101683.00;;;4.10
4421;BMP180;11824;51.178;13.546;2023-02-28T11:06:22;101688.00;;;4.10
4421;BMP180;11824;51.178;13.546;2023-02-28T11:08:53;101689.00;;;4.10
4421;BMP180;11824;51.178;13.546;2023-02-28T11:11:22;101688.00;;;4.00
4421;BMP180;11824;51.178;13.546;2023-02-28T11:13:54;101679.00;;;3.90
4421;BMP180;11824;51.178;13.546;2023-02-28T11:16:31;101685.00;;;3.90
4421;BMP180;11824;51.178;13.546;2023-02-28T11:18:59;101679.00;;;3.80
4421;BMP180;11824;51.178;13.546;2023-02-28T11:21:30;101677.00;;;3.60
4421;BMP180;11824;51.178;13.546;2023-02-28T11:24:02;101678.00;;;3.50
4421;BMP180;11824;51.178;13.546;2023-02-28T11:26:39;101667.00;;;3.40
4421;BMP180;11824;51.178;13.546;2023-02-28T11:29:16;101678.00;;;3.20
4421;BMP180;11824;51.178;13.546;2023-02-28T11:32:02;101672.00;;;3.10
4421;BMP180;11824;51.178;13.546;2023-02-28T11:34:31;101670.00;;;3.00
4421;BMP180;11824;51.178;13.546;2023-02-28T11:37:01;101671.00;;;3.00
4421;BMP180;11824;51.178;13.546;2023-02-28T11:39:31;101671.00;;;2.90
4421;BMP180;11824;51.178;13.546;2023-02-28T11:42:15;101666.00;;;2.90
4421;BMP180;11824;51.178;13.546;2023-02-28T11:44:54;101657.00;;;2.90
4421;BMP180;11824;51.178;13.546;2023-02-28T11:47:33;101668.00;;;2.90
4421;BMP180;11824;51.178;13.546;2023-02-28T11:53:01;101655.00;;;3.10
4421;BMP180;11824;51.178;13.546;2023-02-28T11:55:31;101646.00;;;3.10
4421;BMP180;11824;51.178;13.546;2023-02-28T11:58:27;101648.00;;;3.10
4421;BMP180;11824;51.178;13.546;2023-02-28T12:01:09;101650.00;;;3.20
4421;BMP180;11824;51.178;13.546;2023-02-28T12:03:47;101658.00;;;3.20
4421;BMP180;11824;51.178;13.546;2023-02-28T12:06:25;101652.00;;;3.30
4421;BMP180;11824;51.178;13.546;2023-02-28T12:09:02;101646.00;;;3.40
4421;BMP180;11824;51.178;13.546;2023-02-28T12:11:40;101643.00;;;3.50
4421;BMP180;11824;51.178;13.546;2023-02-28T12:17:13;101645.00;;;3.50
4421;BMP180;11824;51.178;13.546;2023-02-28T12:19:48;101637.00;;;3.50
4421;BMP180;11824;51.178;13.546;2023-02-28T12:22:29;101652.00;;;3.60
4421;BMP180;11824;51.178;13.546;2023-02-28T12:25:20;101646.00;;;3.60
4421;BMP180;11824;51.178;13.546;2023-02-28T12:27:49;101638.00;;;3.60
4421;BMP180;11824;51.178;13.546;2023-02-28T12:30:22;101632.00;;;3.60
4421;BMP180;11824;51.178;13.546;2023-02-28T12:32:55;101632.00;;;3.70
4421;BMP180;11824;51.178;13.546;2023-02-28T12:35:26;101640.00;;;3.70
4421;BMP180;11824;51.178;13.546;2023-02-28T12:37:59;101629.00;;;3.80
4421;BMP180;11824;51.178;13.546;2023-02-28T12:40:44;101643.00;;;3.90
4421;BMP180;11824;51.178;13.546;2023-02-28T12:43:14;101627.00;;;4.00
4421;BMP180;11824;51.178;13.546;2023-02-28T12:45:46;101632.00;;;4.00
4421;BMP180;11824;51.178;13.546;2023-02-28T12:48:18;101632.00;;;4.10
4421;BMP180;11824;51.178;13.546;2023-02-28T12:50:47;101631.00;;;4.10
4421;BMP180;11824;51.178;13.546;2023-02-28T12:53:21;101634.00;;;4.20
4421;BMP180;11824;51.178;13.546;2023-02-28T12:55:57;101621.00;;;4.20
4421;BMP180;11824;51.178;13.546;2023-02-28T12:58:33;101621.00;;;4.20
4421;BMP180;11824;51.178;13.546;2023-02-28T13:07:08;101614.00;;;4.40
4421;BMP180;11824;51.178;13.546;2023-02-28T13:09:38;101617.00;;;4.50
4421;BMP180;11824;51.178;13.546;2023-02-28T13:12:14;101616.00;;;4.50
4421;BMP180;11824;51.178;13.546;2023-02-28T13:14:43;101619.00;;;4.60
4421;BMP180;11824;51.178;13.546;2023-02-28T13:17:12;101604.00;;;4.60
4421;BMP180;11824;51.178;13.546;2023-02-28T13:19:43;101608.00;;;4.70
4421;BMP180;11824;51.178;13.546;2023-02-28T13:22:18;101604.00;;;4.80
4421;BMP180;11824;51.178;13.546;2023-02-28T13:24:48;101609.00;;;4.80
4421;BMP180;11824;51.178;13.546;2023-02-28T13:27:34;101616.00;;;4.90
4421;BMP180;11824;51.178;13.546;2023-02-28T13:32:44;101604.00;;;4.90
4421;BMP180;11824;51.178;13.546;2023-02-28T13:38:32;101601.00;;;4.90
4421;BMP180;11824;51.178;13.546;2023-02-28T13:41:46;101590.00;;;4.90
4421;BMP180;11824;51.178;13.546;2023-02-28T13:44:22;101595.00;;;4.90
4421;BMP180;11824;51.178;13.546;2023-02-28T13:47:22;101595.00;;;4.90
4421;BMP180;11824;51.178;13.546;2023-02-28T13:50:19;101586.00;;;4.80
4421;BMP180;11824;51.178;13.546;2023-02-28T13:52:56;101589.00;;;4.70
4421;BMP180;11824;51.178;13.546;2023-02-28T13:55:33;101587.00;;;4.60
4421;BMP180;11824;51.178;13.546;2023-02-28T13:58:33;101591.00;;;4.70
4421;BMP180;11824;51.178;13.546;2023-02-28T14:01:27;101573.00;;;4.60
4421;BMP180;11824;51.178;13.546;2023-02-28T14:04:09;101581.00;;;4.50
4421;BMP180;11824;51.178;13.546;2023-02-28T14:06:50;101562.00;;;4.40
4421;BMP180;11824;51.178;13.546;2023-02-28T14:09:24;101574.00;;;4.40
4421;BMP180;11824;51.178;13.546;2023-02-28T14:11:53;101575.00;;;4.40
4421;BMP180;11824;51.178;13.546;2023-02-28T14:14:56;101569.00;;;4.40
4421;BMP180;11824;51.178;13.546;2023-02-28T14:17:57;101576.00;;;4.30
4421;BMP180;11824;51.178;13.546;2023-02-28T14:20:29;101569.00;;;4.30
4421;BMP180;11824;51.178;13.546;2023-02-28T14:23:04;101576.00;;;4.20
4421;BMP180;11824;51.178;13.546;2023-02-28T14:25:43;101578.00;;;4.20
4421;BMP180;11824;51.178;13.546;2023-02-28T14:28:23;101573.00;;;4.10
4421;BMP180;11824;51.178;13.546;2023-02-28T14:31:05;101575.00;;;4.10
4421;BMP180;11824;51.178;13.546;2023-02-28T14:34:03;101565.00;;;4.10
4421;BMP180;11824;51.178;13.546;2023-02-28T14:36:37;101560.00;;;4.00
4421;BMP180;11824;51.178;13.546;2023-02-28T14:39:18;101563.00;;;4.00
4421;BMP180;11824;51.178;13.546;2023-02-28T14:41:47;101558.00;;;3.90
4421;BMP180;11824;51.178;13.546;2023-02-28T14:44:20;101560.00;;;3.90
4421;BMP180;11824;51.178;13.546;2023-02-28T14:46:50;101556.00;;;3.90
4421;BMP180;11824;51.178;13.546;2023-02-28T14:49:27;101561.00;;;3.80
4421;BMP180;11824;51.178;13.546;2023-02-28T14:52:17;101559.00;;;3.80
4421;BMP180;11824;51.178;13.546;2023-02-28T14:54:46;101558.00;;;3.80
4421;BMP180;11824;51.178;13.546;2023-02-28T14:57:25;101561.00;;;3.80